createdAt,value
2023-04-27T00:00:11.875Z,2876.00
2023-04-27T00:01:11.681Z,2868.00
2023-04-27T00:02:11.772Z,2877.00
2023-04-27T00:03:11.891Z,2870.00
2023-04-27T00:04:11.895Z,2866.00
2023-04-27T00:05:12.003Z,2867.00
2023-04-27T00:06:11.912Z,2860.00
2023-04-27T00:07:11.895Z,2862.00
2023-04-27T00:08:11.930Z,2868.00
2023-04-27T00:09:12.236Z,2860.00
2023-04-27T00:10:11.979Z,2854.00
2023-04-27T00:11:12.006Z,2852.00
2023-04-27T00:12:12.048Z,2850.00
2023-04-27T00:13:12.109Z,2852.00
2023-04-27T00:14:12.118Z,2845.00
2023-04-27T00:15:12.152Z,2837.00
2023-04-27T00:16:12.186Z,2831.00
2023-04-27T00:17:12.212Z,2830.00
2023-04-27T00:18:12.238Z,2831.00
2023-04-27T00:19:12.485Z,2820.00
2023-04-27T00:20:12.346Z,2816.00
2023-04-27T00:21:12.338Z,2813.00
2023-04-27T00:22:12.370Z,2806.00
2023-04-27T00:23:12.414Z,2813.00
2023-04-27T00:24:12.432Z,2810.00
2023-04-27T00:25:12.613Z,2809.00
2023-04-27T00:26:12.502Z,2808.00
2023-04-27T00:27:12.551Z,2796.00
2023-04-27T00:28:12.620Z,2791.00
2023-04-27T00:29:12.824Z,2800.00
2023-04-27T00:30:12.637Z,2796.00
2023-04-27T00:31:12.663Z,2801.00
2023-04-27T00:32:12.720Z,2783.00
2023-04-27T00:33:12.749Z,2781.00
2023-04-27T00:34:12.764Z,2793.00
2023-04-27T00:35:12.813Z,2791.00
2023-04-27T00:36:12.846Z,2781.00
2023-04-27T00:37:12.862Z,2776.00
2023-04-27T00:38:12.925Z,2775.00
2023-04-27T00:39:13.155Z,2784.00
2023-04-27T00:40:12.982Z,2777.00
2023-04-27T00:41:13.018Z,2774.00
2023-04-27T00:42:13.056Z,2756.00
2023-04-27T00:43:13.076Z,2759.00
2023-04-27T00:44:13.107Z,2758.00
2023-04-27T00:45:13.183Z,2752.00
2023-04-27T00:46:13.282Z,2757.00
2023-04-27T00:47:13.236Z,2747.00
2023-04-27T00:48:13.274Z,2749.00
2023-04-27T00:49:13.480Z,2749.00
2023-04-27T00:50:13.334Z,2753.00
2023-04-27T00:51:13.417Z,2751.00
2023-04-27T00:52:13.411Z,2750.00
2023-04-27T00:53:13.425Z,2743.00
2023-04-27T00:54:13.447Z,2740.00
2023-04-27T00:55:13.476Z,2748.00
2023-04-27T00:56:13.562Z,2737.00
2023-04-27T00:57:13.556Z,2736.00
2023-04-27T00:58:13.623Z,2726.00
2023-04-27T00:59:13.842Z,2718.00
2023-04-27T01:00:13.763Z,2719.00
2023-04-27T01:01:13.770Z,2719.00
2023-04-27T01:02:13.936Z,2714.00
2023-04-27T01:03:14.005Z,2721.00
2023-04-27T01:04:13.966Z,2712.00
2023-04-27T01:05:13.855Z,2695.00
2023-04-27T01:06:13.874Z,2691.00
2023-04-27T01:07:13.913Z,2695.00
2023-04-27T01:08:13.945Z,2700.00
2023-04-27T01:09:14.321Z,2708.00
2023-04-27T01:10:14.029Z,2701.00
2023-04-27T01:11:14.048Z,2688.00
2023-04-27T01:12:14.080Z,2687.00
2023-04-27T01:13:14.132Z,2682.00
2023-04-27T01:14:14.155Z,2681.00
2023-04-27T01:15:14.230Z,2667.00
2023-04-27T01:16:14.275Z,2672.00
2023-04-27T01:17:14.369Z,2673.00
2023-04-27T01:18:14.357Z,2668.00
2023-04-27T01:19:14.706Z,2669.00
2023-04-27T01:20:14.401Z,2666.00
2023-04-27T01:21:14.460Z,2665.00
2023-04-27T01:22:14.544Z,2659.00
2023-04-27T01:23:16.773Z,2667.00
2023-04-27T01:24:14.514Z,2670.00
2023-04-27T01:25:14.576Z,2660.00
2023-04-27T01:26:14.584Z,2656.00
2023-04-27T01:27:14.482Z,2657.00
2023-04-27T01:28:14.489Z,2663.00
2023-04-27T01:29:14.761Z,2648.00
2023-04-27T01:30:14.486Z,2661.00
2023-04-27T01:31:14.546Z,2641.00
2023-04-27T01:32:14.478Z,2641.00
2023-04-27T01:33:14.486Z,2638.00
2023-04-27T01:34:14.454Z,2632.00
2023-04-27T01:35:14.489Z,2644.00
2023-04-27T01:36:14.421Z,2638.00
2023-04-27T01:37:14.463Z,2627.00
2023-04-27T01:38:14.460Z,2618.00
2023-04-27T01:39:14.699Z,2622.00
2023-04-27T01:40:14.420Z,2632.00
2023-04-27T01:41:14.408Z,2630.00
2023-04-27T01:42:14.400Z,2628.00
2023-04-27T01:43:14.386Z,2624.00
2023-04-27T01:44:14.395Z,2623.00
2023-04-27T01:45:14.417Z,2615.00
2023-04-27T01:46:14.420Z,2622.00
2023-04-27T01:47:14.381Z,2609.00
2023-04-27T01:48:14.380Z,2615.00
2023-04-27T01:49:14.552Z,2618.00
2023-04-27T01:50:14.375Z,2594.00
2023-04-27T01:51:14.389Z,2601.00
2023-04-27T01:52:14.352Z,2608.00
2023-04-27T01:53:14.350Z,2599.00
2023-04-27T01:54:14.320Z,2605.00
2023-04-27T01:55:14.352Z,2590.00
2023-04-27T01:56:14.318Z,2603.00
2023-04-27T01:57:14.335Z,2598.00
2023-04-27T01:58:14.305Z,2589.00
2023-04-27T01:59:14.525Z,2585.00
2023-04-27T02:00:14.268Z,2582.00
2023-04-27T02:01:14.317Z,2588.00
2023-04-27T02:02:14.287Z,2565.00
2023-04-27T02:03:14.369Z,2588.00
2023-04-27T02:04:14.472Z,2582.00
2023-04-27T02:05:14.254Z,2587.00
2023-04-27T02:06:14.252Z,2571.00
2023-04-27T02:07:14.233Z,2581.00
2023-04-27T02:08:14.235Z,2580.00
2023-04-27T02:09:14.424Z,2582.00
2023-04-27T02:10:14.241Z,2565.00
2023-04-27T02:11:14.221Z,2561.00
2023-04-27T02:12:14.299Z,2567.00
2023-04-27T02:13:14.321Z,2562.00
2023-04-27T02:14:14.389Z,2555.00
2023-04-27T02:15:14.417Z,2555.00
2023-04-27T02:16:14.480Z,2545.00
2023-04-27T02:17:14.490Z,2545.00
2023-04-27T02:18:14.505Z,2552.00
2023-04-27T02:19:14.718Z,2546.00
2023-04-27T02:20:14.619Z,2542.00
2023-04-27T02:21:14.642Z,2542.00
2023-04-27T02:22:14.670Z,2543.00
2023-04-27T02:23:14.716Z,2546.00
2023-04-27T02:24:14.760Z,2538.00
2023-04-27T02:25:14.851Z,2530.00
2023-04-27T02:26:14.842Z,2527.00
2023-04-27T02:27:14.879Z,2520.00
2023-04-27T02:28:14.895Z,2534.00
2023-04-27T02:29:15.882Z,2534.00
2023-04-27T02:30:15.022Z,2522.00
2023-04-27T02:31:15.087Z,2523.00
2023-04-27T02:32:15.078Z,2521.00
2023-04-27T02:33:15.145Z,2517.00
2023-04-27T02:34:15.156Z,2518.00
2023-04-27T02:35:15.201Z,2508.00
2023-04-27T02:36:15.283Z,2506.00
2023-04-27T02:37:15.319Z,2522.00
2023-04-27T02:38:15.317Z,2507.00
2023-04-27T02:39:15.615Z,2514.00
2023-04-27T02:40:15.475Z,2502.00
2023-04-27T02:41:15.457Z,2504.00
2023-04-27T02:42:15.507Z,2499.00
2023-04-27T02:43:15.550Z,2498.00
2023-04-27T02:44:15.592Z,2487.00
2023-04-27T02:45:15.657Z,2490.00
2023-04-27T02:46:15.710Z,2496.00
2023-04-27T02:47:15.765Z,2480.00
2023-04-27T02:48:15.771Z,2482.00
2023-04-27T02:49:16.131Z,2477.00
2023-04-27T02:50:15.862Z,2482.00
2023-04-27T02:51:15.917Z,2472.00
2023-04-27T02:52:15.950Z,2479.00
2023-04-27T02:53:15.984Z,2478.00
2023-04-27T02:54:16.035Z,2473.00
2023-04-27T02:55:23.146Z,2473.00
2023-04-27T02:56:16.051Z,2475.00
2023-04-27T02:57:16.051Z,2476.00
2023-04-27T02:58:16.064Z,2477.00
2023-04-27T02:59:16.281Z,2474.00
2023-04-27T03:00:16.036Z,2470.00
2023-04-27T03:01:16.060Z,2466.00
2023-04-27T03:02:16.022Z,2468.00
2023-04-27T03:03:16.142Z,2467.00
2023-04-27T03:04:16.254Z,2473.00
2023-04-27T03:05:16.019Z,2468.00
2023-04-27T03:06:15.976Z,2467.00
2023-04-27T03:07:15.979Z,2457.00
2023-04-27T03:08:15.993Z,2455.00
2023-04-27T03:09:16.451Z,2459.00
2023-04-27T03:10:15.960Z,2462.00
2023-04-27T03:11:15.968Z,2455.00
2023-04-27T03:12:15.967Z,2458.00
2023-04-27T03:13:15.958Z,2452.00
2023-04-27T03:14:15.977Z,2456.00
2023-04-27T03:15:15.945Z,2439.00
2023-04-27T03:16:16.663Z,2441.00
2023-04-27T03:17:15.909Z,2438.00
2023-04-27T03:18:15.918Z,2431.00
2023-04-27T03:19:16.089Z,2435.00
2023-04-27T03:20:15.912Z,2437.00
2023-04-27T03:21:15.890Z,2437.00
2023-04-27T03:22:15.951Z,2439.00
2023-04-27T03:23:15.930Z,2435.00
2023-04-27T03:24:15.998Z,2431.00
2023-04-27T03:25:16.048Z,2420.00
2023-04-27T03:26:16.124Z,2428.00
2023-04-27T03:27:16.145Z,2429.00
2023-04-27T03:28:16.177Z,2430.00
2023-04-27T03:29:16.278Z,2417.00
2023-04-27T03:30:16.290Z,2421.00
2023-04-27T03:31:16.375Z,2427.00
2023-04-27T03:32:16.380Z,2415.00
2023-04-27T03:33:16.555Z,2415.00
2023-04-27T03:34:16.457Z,2416.00
2023-04-27T03:35:16.498Z,2421.00
2023-04-27T03:36:16.585Z,2409.00
2023-04-27T03:37:16.589Z,2407.00
2023-04-27T03:38:16.645Z,2400.00
2023-04-27T03:39:16.736Z,2401.00
2023-04-27T03:40:16.768Z,2396.00
2023-04-27T03:41:16.770Z,2395.00
2023-04-27T03:42:16.816Z,2398.00
2023-04-27T03:43:16.861Z,2392.00
2023-04-27T03:44:16.884Z,2392.00
2023-04-27T03:45:16.951Z,2399.00
2023-04-27T03:46:17.012Z,2394.00
2023-04-27T03:47:17.041Z,2392.00
2023-04-27T03:48:17.094Z,2402.00
2023-04-27T03:49:17.126Z,2392.00
2023-04-27T03:50:17.165Z,2394.00
2023-04-27T03:51:17.200Z,2391.00
2023-04-27T03:52:17.267Z,2379.00
2023-04-27T03:53:17.301Z,2385.00
2023-04-27T03:54:17.338Z,2382.00
2023-04-27T03:55:17.408Z,2375.00
2023-04-27T03:56:17.454Z,2373.00
2023-04-27T03:57:17.483Z,2380.00
2023-04-27T03:58:17.550Z,2382.00
2023-04-27T03:59:17.586Z,2376.00
2023-04-27T04:00:17.677Z,2363.00
2023-04-27T04:01:17.658Z,2349.00
2023-04-27T04:02:17.794Z,2359.00
2023-04-27T04:03:18.050Z,2362.00
2023-04-27T04:04:17.918Z,2358.00
2023-04-27T04:05:17.988Z,2356.00
2023-04-27T04:06:17.911Z,2355.00
2023-04-27T04:07:17.959Z,2352.00
2023-04-27T04:08:18.008Z,2354.00
2023-04-27T04:09:18.050Z,2348.00
2023-04-27T04:10:18.105Z,2356.00
2023-04-27T04:11:18.157Z,2338.00
2023-04-27T04:12:18.194Z,2343.00
2023-04-27T04:13:18.279Z,2341.00
2023-04-27T04:14:18.294Z,2338.00
2023-04-27T04:15:18.331Z,2344.00
2023-04-27T04:16:18.460Z,2339.00
2023-04-27T04:17:18.497Z,2337.00
2023-04-27T04:18:18.495Z,2346.00
2023-04-27T04:19:19.586Z,2338.00
2023-04-27T04:20:18.586Z,2333.00
2023-04-27T04:21:18.509Z,2331.00
2023-04-27T04:22:18.512Z,2331.00
2023-04-27T04:23:18.505Z,2321.00
2023-04-27T04:24:18.505Z,2320.00
2023-04-27T04:25:18.538Z,2325.00
2023-04-27T04:26:18.485Z,2318.00
2023-04-27T04:27:18.510Z,2323.00
2023-04-27T04:28:18.502Z,2316.00
2023-04-27T04:29:18.462Z,2315.00
2023-04-27T04:30:18.483Z,2314.00
2023-04-27T04:31:18.542Z,2319.00
2023-04-27T04:32:18.454Z,2323.00
2023-04-27T04:33:18.455Z,2318.00
2023-04-27T04:34:18.459Z,2312.00
2023-04-27T04:35:18.417Z,2305.00
2023-04-27T04:36:18.420Z,2307.00
2023-04-27T04:37:18.438Z,2302.00
2023-04-27T04:38:18.405Z,2302.00
2023-04-27T04:39:18.394Z,2306.00
2023-04-27T04:40:18.418Z,2292.00
2023-04-27T04:41:18.389Z,2289.00
2023-04-27T04:42:18.382Z,2291.00
2023-04-27T04:43:18.442Z,2300.00
2023-04-27T04:44:18.344Z,2288.00
2023-04-27T04:45:18.348Z,2291.00
2023-04-27T04:46:18.374Z,2285.00
2023-04-27T04:47:18.333Z,2283.00
2023-04-27T04:48:18.334Z,2279.00
2023-04-27T04:49:18.353Z,2287.00
2023-04-27T04:50:18.348Z,2286.00
2023-04-27T04:51:18.357Z,2290.00
2023-04-27T04:52:18.300Z,2284.00
2023-04-27T04:53:18.302Z,2268.00
2023-04-27T04:54:18.303Z,2283.00
2023-04-27T04:55:18.283Z,2277.00
2023-04-27T04:56:18.306Z,2273.00
2023-04-27T04:57:18.265Z,2269.00
2023-04-27T04:58:18.280Z,2271.00
2023-04-27T04:59:18.252Z,2262.00
2023-04-27T05:00:18.257Z,2263.00
2023-04-27T05:01:18.301Z,2270.00
2023-04-27T05:02:18.476Z,2265.00
2023-04-27T05:03:18.428Z,2263.00
2023-04-27T05:04:18.471Z,2252.00
2023-04-27T05:05:18.393Z,2248.00
2023-04-27T05:06:18.427Z,2248.00
2023-04-27T05:07:22.112Z,2251.00
2023-04-27T05:08:19.480Z,2251.00
2023-04-27T05:09:18.438Z,2253.00
2023-04-27T05:10:18.454Z,2255.00
2023-04-27T05:11:18.431Z,2252.00
2023-04-27T05:12:18.417Z,2249.00
2023-04-27T05:13:18.438Z,2258.00
2023-04-27T05:14:18.418Z,2258.00
2023-04-27T05:15:18.417Z,2256.00
2023-04-27T05:16:18.566Z,2252.00
2023-04-27T05:17:18.412Z,2255.00
2023-04-27T05:18:18.417Z,2254.00
2023-04-27T05:19:18.450Z,2247.00
2023-04-27T05:20:18.517Z,2261.00
2023-04-27T05:21:18.551Z,2259.00
2023-04-27T05:22:18.618Z,2245.00
2023-04-27T05:23:18.624Z,2251.00
2023-04-27T05:24:18.743Z,2243.00
2023-04-27T05:25:18.842Z,2242.00
2023-04-27T05:26:18.850Z,2248.00
2023-04-27T05:27:18.847Z,2253.00
2023-04-27T05:28:18.914Z,2251.00
2023-04-27T05:29:18.941Z,2269.00
2023-04-27T05:30:19.048Z,2262.00
2023-04-27T05:31:19.104Z,2269.00
2023-04-27T05:32:19.121Z,2274.00
2023-04-27T05:33:19.134Z,2272.00
2023-04-27T05:34:19.203Z,2285.00
2023-04-27T05:35:19.268Z,2272.00
2023-04-27T05:36:19.270Z,2272.00
2023-04-27T05:37:19.321Z,2304.00
2023-04-27T05:38:19.381Z,2327.00
2023-04-27T05:39:19.411Z,2330.00
2023-04-27T05:40:19.464Z,2353.00
2023-04-27T05:41:19.493Z,2388.00
2023-04-27T05:42:20.221Z,2400.00
2023-04-27T05:43:19.738Z,2427.00
2023-04-27T05:44:19.630Z,2454.00
2023-04-27T05:45:19.643Z,2479.00
2023-04-27T05:46:19.873Z,2509.00
2023-04-27T05:47:19.686Z,2576.00
2023-04-27T05:48:19.698Z,2608.00
2023-04-27T05:49:19.769Z,2631.00
2023-04-27T05:50:19.765Z,2653.00
2023-04-27T05:51:19.771Z,2690.00
2023-04-27T05:52:19.794Z,2738.00
2023-04-27T05:53:20.231Z,2856.00
2023-04-27T05:54:19.831Z,2883.00
2023-04-27T05:55:19.848Z,2903.00
2023-04-27T05:56:19.931Z,2932.00
2023-04-27T05:57:19.858Z,2958.00
2023-04-27T05:58:19.890Z,2972.00
2023-04-27T05:59:19.882Z,3001.00
2023-04-27T06:00:20.296Z,3025.00
2023-04-27T06:01:19.905Z,3046.00
2023-04-27T06:02:20.048Z,3079.00
2023-04-27T06:03:19.977Z,3107.00
2023-04-27T06:04:20.047Z,3142.00
2023-04-27T06:05:19.969Z,3160.00
2023-04-27T06:06:19.946Z,3194.00
2023-04-27T06:07:19.869Z,3223.00
2023-04-27T06:08:20.790Z,3241.00
2023-04-27T06:09:19.909Z,3267.00
2023-04-27T06:10:19.925Z,3298.00
2023-04-27T06:11:19.939Z,3313.00
2023-04-27T06:12:19.954Z,3334.00
2023-04-27T06:13:19.993Z,3345.00
2023-04-27T06:14:20.123Z,3367.00
2023-04-27T06:15:20.770Z,3399.00
2023-04-27T06:16:20.120Z,3458.00
2023-04-27T06:17:20.112Z,3464.00
2023-04-27T06:18:20.105Z,3480.00
2023-04-27T06:19:20.209Z,3508.00
2023-04-27T06:20:20.310Z,3512.00
2023-04-27T06:21:20.273Z,3541.00
2023-04-27T06:22:20.308Z,3537.00
2023-04-27T06:23:20.351Z,3545.00
2023-04-27T06:24:20.655Z,3577.00
2023-04-27T06:25:20.567Z,3588.00
2023-04-27T06:26:20.585Z,3620.00
2023-04-27T06:27:20.820Z,3637.00
2023-04-27T06:28:20.671Z,3651.00
2023-04-27T06:29:20.755Z,3662.00
2023-04-27T06:30:20.882Z,3688.00
2023-04-27T06:31:20.935Z,3687.00
2023-04-27T06:32:20.897Z,3709.00
2023-04-27T06:33:20.960Z,3719.00
2023-04-27T06:34:21.000Z,3717.00
2023-04-27T06:35:21.080Z,3741.00
2023-04-27T06:36:21.134Z,3743.00
2023-04-27T06:37:21.211Z,3739.00
2023-04-27T06:38:21.273Z,3719.00
2023-04-27T06:39:21.280Z,3741.00
2023-04-27T06:40:21.356Z,3729.00
2023-04-27T06:41:21.397Z,3728.00
2023-04-27T06:42:21.443Z,3712.00
2023-04-27T06:43:21.771Z,3714.00
2023-04-27T06:44:21.550Z,3725.00
2023-04-27T06:45:21.594Z,3706.00
2023-04-27T06:46:21.704Z,3712.00
2023-04-27T06:47:21.738Z,3700.00
2023-04-27T06:48:21.860Z,3701.00
2023-04-27T06:49:21.902Z,3687.00
2023-04-27T06:50:21.958Z,3685.00
2023-04-27T06:51:22.007Z,3653.00
2023-04-27T06:52:22.105Z,3661.00
2023-04-27T06:53:22.140Z,3661.00
2023-04-27T06:54:22.201Z,3662.00
2023-04-27T06:55:22.226Z,3646.00
2023-04-27T06:56:22.302Z,3646.00
2023-04-27T06:57:22.387Z,3639.00
2023-04-27T06:58:22.404Z,3623.00
2023-04-27T06:59:22.473Z,3617.00
2023-04-27T07:00:22.516Z,3615.00
2023-04-27T07:01:22.659Z,3610.00
2023-04-27T07:02:24.925Z,3611.00
2023-04-27T07:03:22.757Z,3599.00
2023-04-27T07:04:22.906Z,3588.00
2023-04-27T07:05:22.656Z,3564.00
2023-04-27T07:06:22.612Z,3561.00
2023-04-27T07:07:22.633Z,3558.00
2023-04-27T07:08:22.614Z,3543.00
2023-04-27T07:09:27.483Z,3545.00
2023-04-27T07:10:23.609Z,3547.00
2023-04-27T07:11:22.585Z,3548.00
2023-04-27T07:12:22.583Z,3540.00
2023-04-27T07:13:22.583Z,3520.00
2023-04-27T07:14:22.552Z,3508.00
2023-04-27T07:15:22.602Z,3499.00
2023-04-27T07:16:22.578Z,3500.00
2023-04-27T07:17:22.615Z,3485.00
2023-04-27T07:18:22.789Z,3481.00
2023-04-27T07:19:22.534Z,3477.00
2023-04-27T07:20:22.539Z,3459.00
2023-04-27T07:21:22.579Z,3462.00
2023-04-27T07:22:22.540Z,3457.00
2023-04-27T07:23:22.614Z,3439.00
2023-04-27T07:24:22.585Z,3434.00
2023-04-27T07:25:22.680Z,3408.00
2023-04-27T07:26:22.754Z,3418.00
2023-04-27T07:27:22.681Z,3405.00
2023-04-27T07:28:22.713Z,3405.00
2023-04-27T07:29:27.187Z,3404.00
2023-04-27T07:30:22.737Z,3405.00
2023-04-27T07:31:22.731Z,3395.00
2023-04-27T07:32:22.862Z,3399.00
2023-04-27T07:33:22.753Z,3404.00
2023-04-27T07:34:22.730Z,3424.00
2023-04-27T07:35:22.674Z,3453.00
2023-04-27T07:36:22.693Z,3480.00
2023-04-27T07:37:22.693Z,3476.00
2023-04-27T07:38:22.787Z,3481.00
2023-04-27T07:39:24.295Z,3465.00
2023-04-27T07:40:22.644Z,3418.00
2023-04-27T07:41:22.857Z,3414.00
2023-04-27T07:42:22.743Z,3348.00
2023-04-27T07:43:22.811Z,3342.00
2023-04-27T07:44:22.918Z,3341.00
2023-04-27T07:45:23.028Z,3352.00
2023-04-27T07:46:23.899Z,3343.00
2023-04-27T07:47:23.055Z,3358.00
2023-04-27T07:48:23.355Z,3362.00
2023-04-27T07:49:23.211Z,3373.00
2023-04-27T07:50:23.263Z,3376.00
2023-04-27T07:51:23.803Z,3377.00
2023-04-27T07:52:23.362Z,3374.00
2023-04-27T07:53:23.408Z,3383.00
2023-04-27T07:54:23.482Z,3370.00
2023-04-27T07:55:23.604Z,3361.00
2023-04-27T07:56:23.760Z,3344.00
2023-04-27T07:57:23.666Z,3332.00
2023-04-27T07:58:23.792Z,3331.00
2023-04-27T07:59:23.831Z,3341.00
2023-04-27T08:00:23.978Z,3343.00
2023-04-27T08:01:23.898Z,3311.00
2023-04-27T08:02:24.107Z,3326.00
2023-04-27T08:03:24.550Z,3314.00
2023-04-27T08:04:24.319Z,3299.00
2023-04-27T08:05:24.619Z,3299.00
2023-04-27T08:06:24.853Z,3301.00
2023-04-27T08:07:24.290Z,3280.00
2023-04-27T08:08:24.353Z,3299.00
2023-04-27T08:09:24.396Z,3286.00
2023-04-27T08:10:24.478Z,3291.00
2023-04-27T08:11:24.529Z,3291.00
2023-04-27T08:12:24.528Z,3265.00
2023-04-27T08:13:25.555Z,3242.00
2023-04-27T08:14:24.643Z,3246.00
2023-04-27T08:15:24.698Z,3245.00
2023-04-27T08:16:24.948Z,3237.00
2023-04-27T08:17:24.822Z,3235.00
2023-04-27T08:18:24.865Z,3227.00
2023-04-27T08:19:24.914Z,3201.00
2023-04-27T08:20:24.977Z,3207.00
2023-04-27T08:21:25.103Z,3216.00
2023-04-27T08:22:25.080Z,3231.00
2023-04-27T08:23:25.199Z,3228.00
2023-04-27T08:24:25.162Z,3248.00
2023-04-27T08:25:25.224Z,3288.00
2023-04-27T08:26:26.409Z,3353.00
2023-04-27T08:27:25.357Z,3620.00
2023-04-27T08:28:25.396Z,3727.00
2023-04-27T08:29:28.585Z,3663.00
2023-04-27T08:30:25.484Z,3671.00
2023-04-27T08:31:25.842Z,3640.00
2023-04-27T08:32:25.429Z,3556.00
2023-04-27T08:33:25.404Z,3520.00
2023-04-27T08:34:25.406Z,3453.00
2023-04-27T08:35:25.374Z,3400.00
2023-04-27T08:36:25.368Z,3341.00
2023-04-27T08:37:25.471Z,3277.00
2023-04-27T08:38:25.734Z,3226.00
2023-04-27T08:39:25.334Z,3242.00
2023-04-27T08:40:25.345Z,3327.00
2023-04-27T08:41:25.386Z,3275.00
2023-04-27T08:42:25.402Z,3058.00
2023-04-27T08:43:25.320Z,2862.00
2023-04-27T08:44:25.310Z,2900.00
2023-04-27T08:45:25.298Z,2932.00
2023-04-27T08:46:25.364Z,2951.00
2023-04-27T08:47:35.133Z,2982.00
2023-04-27T08:48:26.335Z,2984.00
2023-04-27T08:49:25.271Z,2990.00
2023-04-27T08:50:25.307Z,2999.00
2023-04-27T08:51:25.273Z,3012.00
2023-04-27T08:52:25.254Z,3045.00
2023-04-27T08:53:25.247Z,3039.00
2023-04-27T08:54:25.235Z,3038.00
2023-04-27T08:55:25.260Z,3036.00
2023-04-27T08:56:25.307Z,3040.00
2023-04-27T08:57:25.321Z,3060.00
2023-04-27T08:58:25.342Z,3061.00
2023-04-27T08:59:25.438Z,3037.00
2023-04-27T09:00:25.472Z,3050.00
2023-04-27T09:01:25.540Z,3041.00
2023-04-27T09:02:25.732Z,3040.00
2023-04-27T09:03:25.788Z,3047.00
2023-04-27T09:04:25.778Z,3029.00
2023-04-27T09:05:25.834Z,3025.00
2023-04-27T09:06:25.876Z,3035.00
2023-04-27T09:07:27.988Z,3032.00
2023-04-27T09:08:25.835Z,3030.00
2023-04-27T09:09:25.832Z,3022.00
2023-04-27T09:10:25.853Z,3010.00
2023-04-27T09:11:25.830Z,3014.00
2023-04-27T09:12:25.799Z,3008.00
2023-04-27T09:13:25.791Z,3001.00
2023-04-27T09:14:25.796Z,2985.00
2023-04-27T09:15:25.808Z,2998.00
2023-04-27T09:16:25.828Z,2992.00
2023-04-27T09:17:25.799Z,2986.00
2023-04-27T09:18:25.782Z,2984.00
2023-04-27T09:19:25.752Z,2989.00
2023-04-27T09:20:25.735Z,2974.00
2023-04-27T09:21:25.739Z,2963.00
2023-04-27T09:22:25.714Z,2967.00
2023-04-27T09:23:25.726Z,2967.00
2023-04-27T09:24:25.714Z,2960.00
2023-04-27T09:25:25.723Z,2945.00
2023-04-27T09:26:25.731Z,2957.00
2023-04-27T09:27:25.754Z,2949.00
2023-04-27T09:28:25.679Z,2946.00
2023-04-27T09:29:25.691Z,2890.00
2023-04-27T09:30:25.656Z,2752.00
2023-04-27T09:31:25.678Z,2685.00
2023-04-27T09:32:25.691Z,2628.00
2023-04-27T09:33:25.654Z,2520.00
2023-04-27T09:34:25.660Z,2460.00
2023-04-27T09:35:25.644Z,2115.00
2023-04-27T09:36:25.633Z,2112.00
2023-04-27T09:37:25.632Z,2160.00
2023-04-27T09:38:26.305Z,2174.00
2023-04-27T09:39:25.658Z,2152.00
2023-04-27T09:40:25.603Z,2227.00
2023-04-27T09:41:25.600Z,2303.00
2023-04-27T09:42:25.596Z,2288.00
2023-04-27T09:43:25.699Z,2304.00
2023-04-27T09:44:25.684Z,2330.00
2023-04-27T09:45:25.841Z,2187.00
2023-04-27T09:46:25.593Z,2077.00
2023-04-27T09:47:25.633Z,2020.00
2023-04-27T09:48:25.794Z,1936.00
2023-04-27T09:49:25.692Z,1884.00
2023-04-27T09:50:25.723Z,1926.00
2023-04-27T09:51:25.828Z,2075.00
2023-04-27T09:52:26.033Z,2082.00
2023-04-27T09:53:25.920Z,1990.00
2023-04-27T09:54:26.069Z,2017.00
2023-04-27T09:55:26.042Z,2079.00
2023-04-27T09:56:26.088Z,2125.00
2023-04-27T09:57:26.163Z,2090.00
2023-04-27T09:58:26.204Z,2056.00
2023-04-27T09:59:26.273Z,2131.00
2023-04-27T10:00:26.328Z,2160.00
2023-04-27T10:01:26.412Z,2133.00
2023-04-27T10:02:26.504Z,2137.00
2023-04-27T10:03:26.562Z,2182.00
2023-04-27T10:04:26.672Z,2207.00
2023-04-27T10:05:26.615Z,2168.00
2023-04-27T10:06:26.642Z,2061.00
2023-04-27T10:07:26.677Z,2091.00
2023-04-27T10:08:26.733Z,2114.00
2023-04-27T10:09:26.824Z,2119.00
2023-04-27T10:10:26.825Z,2149.00
2023-04-27T10:11:26.954Z,2159.00
2023-04-27T10:12:26.962Z,2168.00
2023-04-27T10:13:26.978Z,2182.00
2023-04-27T10:14:27.050Z,2164.00
2023-04-27T10:15:27.054Z,2155.00
2023-04-27T10:16:27.168Z,2066.00
2023-04-27T10:17:27.231Z,2118.00
2023-04-27T10:18:27.317Z,2138.00
2023-04-27T10:19:27.257Z,2217.00
2023-04-27T10:20:27.261Z,2260.00
2023-04-27T10:21:27.363Z,2277.00
2023-04-27T10:22:27.337Z,2296.00
2023-04-27T10:23:29.318Z,2347.00
2023-04-27T10:24:27.427Z,2370.00
2023-04-27T10:25:27.490Z,2412.00
2023-04-27T10:26:27.533Z,2322.00
2023-04-27T10:27:27.515Z,2030.00
2023-04-27T10:28:27.552Z,2177.00
2023-04-27T10:29:27.829Z,2240.00
2023-04-27T10:30:28.336Z,2171.00
2023-04-27T10:31:27.748Z,2113.00
2023-04-27T10:32:27.847Z,2041.00
2023-04-27T10:33:28.326Z,2079.00
2023-04-27T10:34:28.602Z,2033.00
2023-04-27T10:35:27.842Z,2030.00
2023-04-27T10:36:27.930Z,2051.00
2023-04-27T10:37:27.934Z,2025.00
2023-04-27T10:38:27.947Z,2045.00
2023-04-27T10:39:43.753Z,2121.00
2023-04-27T10:40:29.011Z,2123.00
2023-04-27T10:41:28.364Z,2131.00
2023-04-27T10:42:28.016Z,2149.00
2023-04-27T10:43:28.059Z,2177.00
2023-04-27T10:44:27.967Z,2238.00
2023-04-27T10:45:31.119Z,2270.00
2023-04-27T10:46:28.062Z,2271.00
2023-04-27T10:47:27.958Z,2272.00
2023-04-27T10:48:27.939Z,2291.00
2023-04-27T10:49:27.990Z,2292.00
2023-04-27T10:50:27.929Z,2293.00
2023-04-27T10:51:27.995Z,2340.00
2023-04-27T10:52:27.961Z,2326.00
2023-04-27T10:53:27.919Z,2325.00
2023-04-27T10:54:27.883Z,2317.00
2023-04-27T10:55:27.960Z,2349.00
2023-04-27T10:56:27.938Z,2352.00
2023-04-27T10:57:27.918Z,2373.00
2023-04-27T10:58:37.777Z,2373.00
2023-04-27T10:59:28.857Z,2374.00
2023-04-27T11:00:27.861Z,2380.00
2023-04-27T11:01:27.966Z,2393.00
2023-04-27T11:02:27.958Z,2412.00
2023-04-27T11:03:27.900Z,2437.00
2023-04-27T11:04:27.834Z,2439.00
2023-04-27T11:05:27.917Z,2454.00
2023-04-27T11:06:27.898Z,2429.00
2023-04-27T11:07:27.897Z,2434.00
2023-04-27T11:08:27.821Z,2465.00
2023-04-27T11:09:27.843Z,2478.00
2023-04-27T11:10:27.788Z,2468.00
2023-04-27T11:11:27.816Z,2473.00
2023-04-27T11:12:27.770Z,2488.00
2023-04-27T11:13:27.900Z,2468.00
2023-04-27T11:14:27.796Z,2434.00
2023-04-27T11:15:27.767Z,2466.00
2023-04-27T11:16:28.059Z,2472.00
2023-04-27T11:17:27.946Z,2492.00
2023-04-27T11:18:27.978Z,2476.00
2023-04-27T11:19:27.875Z,2476.00
2023-04-27T11:20:27.910Z,2491.00
2023-04-27T11:21:28.369Z,2486.00
2023-04-27T11:22:28.055Z,2509.00
2023-04-27T11:23:27.993Z,2527.00
2023-04-27T11:24:28.387Z,2531.00
2023-04-27T11:25:28.059Z,2541.00
2023-04-27T11:26:28.376Z,2545.00
2023-04-27T11:27:28.090Z,2555.00
2023-04-27T11:28:28.159Z,2565.00
2023-04-27T11:29:28.383Z,2557.00
2023-04-27T11:30:28.203Z,2560.00
2023-04-27T11:31:28.423Z,2568.00
2023-04-27T11:32:28.290Z,2583.00
2023-04-27T11:33:28.307Z,2573.00
2023-04-27T11:34:28.322Z,2560.00
2023-04-27T11:35:28.411Z,2566.00
2023-04-27T11:36:28.406Z,2588.00
2023-04-27T11:37:28.429Z,2573.00
2023-04-27T11:38:28.483Z,2579.00
2023-04-27T11:39:28.653Z,2568.00
2023-04-27T11:40:28.593Z,2576.00
2023-04-27T11:41:28.547Z,2595.00
2023-04-27T11:42:28.754Z,2599.00
2023-04-27T11:43:28.632Z,2585.00
2023-04-27T11:44:28.663Z,2589.00
2023-04-27T11:45:28.679Z,2595.00
2023-04-27T11:46:28.727Z,2594.00
2023-04-27T11:47:28.900Z,2582.00
2023-04-27T11:48:28.808Z,2577.00
2023-04-27T11:49:28.799Z,2584.00
2023-04-27T11:50:28.871Z,2577.00
2023-04-27T11:51:28.849Z,2569.00
2023-04-27T11:52:28.918Z,2580.00
2023-04-27T11:53:28.941Z,2574.00
2023-04-27T11:54:28.999Z,2580.00
2023-04-27T11:55:29.069Z,2559.00
2023-04-27T11:56:29.048Z,2555.00
2023-04-27T11:57:29.125Z,2570.00
2023-04-27T11:58:29.129Z,2557.00
2023-04-27T11:59:29.193Z,2536.00
2023-04-27T12:00:29.175Z,2564.00
2023-04-27T12:01:37.589Z,2557.00
2023-04-27T12:02:30.355Z,2557.00
2023-04-27T12:03:29.441Z,2538.00
2023-04-27T12:04:29.502Z,2549.00
2023-04-27T12:05:29.310Z,2534.00